Time;durP1;ratioP1;P1;durP2;ratioP2;P2;SDS_P1;SDS_P2;PMS_P1;PMS_P2;Temp;Humidity;BMP_temperature;BMP_pressure;BME280_temperature;BME280_humidity;BME280_pressure;Samples;Min_cycle;Max_cycle;Signal;HPM_P1;HPM_P2
2022/05/31 00:00:10;;;;;;;12.63;5.80;;;;;;;17.25;100.00;100261.91;5013462;28;20069;-84
2022/05/31 00:02:37;;;;;;;13.00;5.78;;;;;;;17.23;100.00;100253.28;5013849;28;20034;-82
2022/05/31 00:05:03;;;;;;;11.65;5.68;;;;;;;17.19;100.00;100262.78;5013449;28;20029;-82
2022/05/31 00:07:29;;;;;;;12.18;5.75;;;;;;;17.15;100.00;100266.91;5013517;28;20060;-83
2022/05/31 00:09:54;;;;;;;9.88;6.22;;;;;;;17.13;100.00;100274.34;5014080;28;20049;-83
2022/05/31 00:12:20;;;;;;;11.07;5.57;;;;;;;17.11;100.00;100265.66;5014925;28;20036;-84
2022/05/31 00:14:45;;;;;;;10.90;6.50;;;;;;;17.14;100.00;100267.94;5013491;28;20445;-84
2022/05/31 00:17:11;;;;;;;10.63;6.05;;;;;;;17.10;100.00;100274.75;4995799;28;20038;-84
2022/05/31 00:19:37;;;;;;;10.18;6.05;;;;;;;17.17;100.00;100271.00;5013614;28;20499;-82
2022/05/31 00:22:13;;;;;;;13.25;5.93;;;;;;;17.13;100.00;100269.81;5013387;28;20073;-83
2022/05/31 00:24:40;;;;;;;12.88;6.80;;;;;;;17.14;100.00;100276.78;5013077;28;20034;-82
2022/05/31 00:27:07;;;;;;;10.38;6.10;;;;;;;17.15;100.00;100277.63;5013123;28;20060;-86
2022/05/31 00:29:34;;;;;;;8.55;6.38;;;;;;;17.34;100.00;100271.34;4995664;28;20038;-83
2022/05/31 00:32:03;;;;;;;16.55;6.88;;;;;;;17.22;100.00;100273.06;4995653;28;20029;-83
2022/05/31 00:34:31;;;;;;;9.32;6.72;;;;;;;17.08;100.00;100266.09;5013296;28;20034;-83
2022/05/31 00:36:57;;;;;;;10.90;6.70;;;;;;;17.00;100.00;100269.84;5013218;28;20507;-84
2022/05/31 00:39:23;;;;;;;13.88;6.57;;;;;;;16.94;100.00;100270.66;5013569;28;20120;-84
2022/05/31 00:42:10;;;;;;;12.98;6.47;;;;;;;16.96;100.00;100264.09;5013216;28;20120;-83
2022/05/31 00:44:36;;;;;;;11.02;7.00;;;;;;;17.09;100.00;100257.03;4995394;28;20038;-83
2022/05/31 00:47:16;;;;;;;8.68;6.18;;;;;;;17.20;100.00;100261.75;5013043;28;20473;-82
2022/05/31 00:49:56;;;;;;;9.02;6.28;;;;;;;17.19;100.00;100262.78;5013105;28;20061;-82
2022/05/31 00:52:24;;;;;;;15.05;7.13;;;;;;;17.09;100.00;100273.09;5017859;28;20077;-82
2022/05/31 00:55:08;;;;;;;12.35;7.10;;;;;;;17.24;100.00;100276.34;5016458;28;20501;-81
2022/05/31 00:57:36;;;;;;;16.45;6.43;;;;;;;17.23;100.00;100280.06;5023969;28;20056;-81
2022/05/31 01:00:12;;;;;;;10.35;6.20;;;;;;;17.05;100.00;100278.88;5005377;28;20037;-84
2022/05/31 01:02:40;;;;;;;12.50;6.38;;;;;;;17.04;100.00;100279.91;5017529;28;20083;-83
2022/05/31 01:05:08;;;;;;;12.85;7.05;;;;;;;16.96;100.00;100282.81;5015345;28;20511;-83
2022/05/31 01:07:33;;;;;;;10.60;6.65;;;;;;;16.99;100.00;100279.72;5005044;28;20033;-81
2022/05/31 01:10:02;;;;;;;10.38;6.85;;;;;;;16.99;100.00;100281.56;5028087;28;20436;-82
2022/05/31 01:12:58;;;;;;;11.80;6.95;;;;;;;16.84;100.00;100287.16;4970960;28;20046;-82
2022/05/31 01:15:44;;;;;;;15.60;7.03;;;;;;;16.75;100.00;100298.28;5025017;28;20045;-83
2022/05/31 01:18:39;;;;;;;14.05;7.43;;;;;;;16.72;100.00;100291.50;5025834;28;20046;-81
2022/05/31 01:21:37;;;;;;;17.65;7.00;;;;;;;16.70;100.00;100304.28;4996619;28;20038;-86
2022/05/31 01:24:20;;;;;;;15.70;7.70;;;;;;;16.70;100.00;100298.09;5003725;28;20034;-83
2022/05/31 01:27:04;;;;;;;13.98;7.50;;;;;;;16.82;100.00;100302.59;5005859;28;20034;-84
2022/05/31 01:33:38;;;;;;;13.18;7.28;;;;;;;16.94;100.00;100306.28;5038273;28;20033;-84
2022/05/31 01:36:38;;;;;;;16.90;7.55;;;;;;;16.87;100.00;100291.28;5028805;28;20448;-84
2022/05/31 01:39:10;;;;;;;10.55;6.50;;;;;;;16.88;100.00;100296.41;4991701;28;20136;-82
2022/05/31 01:41:50;;;;;;;11.35;6.07;;;;;;;16.80;100.00;100296.66;4995459;28;20042;-83
2022/05/31 01:44:17;;;;;;;12.93;7.50;;;;;;;16.75;100.00;100304.47;4994933;28;20132;-83
2022/05/31 01:46:46;;;;;;;10.55;6.18;;;;;;;16.82;100.00;100305.28;5012481;28;20113;-84
2022/05/31 01:49:13;;;;;;;12.55;6.75;;;;;;;17.02;100.00;100305.25;5014736;28;20076;-84
2022/05/31 01:51:40;;;;;;;14.05;6.95;;;;;;;16.91;100.00;100305.88;4998443;28;20057;-83
2022/05/31 01:54:13;;;;;;;12.60;6.72;;;;;;;16.98;100.00;100298.66;5017246;28;20084;-83
2022/05/31 01:56:40;;;;;;;24.48;7.72;;;;;;;17.04;100.00;100298.66;4983525;28;20056;-84
2022/05/31 01:59:07;;;;;;;14.07;6.93;;;;;;;17.09;100.00;100310.59;4998373;28;20034;-82
2022/05/31 02:01:35;;;;;;;11.80;7.00;;;;;;;17.03;100.00;100313.06;4998482;28;20405;-82
2022/05/31 02:04:02;;;;;;;13.93;7.63;;;;;;;16.94;100.00;100308.13;4998300;28;20025;-83
2022/05/31 02:06:37;;;;;;;13.55;7.93;;;;;;;16.89;100.00;100300.75;5015626;28;20034;-82
2022/05/31 02:09:05;;;;;;;15.73;7.82;;;;;;;16.87;100.00;100312.69;5015960;28;20189;-81
2022/05/31 02:11:31;;;;;;;17.92;8.38;;;;;;;16.73;100.00;100311.88;4997830;28;20038;-83
2022/05/31 02:14:08;;;;;;;15.60;7.93;;;;;;;16.80;100.00;100314.56;4997865;28;20056;-81
2022/05/31 02:16:34;;;;;;;12.07;7.80;;;;;;;16.83;100.00;100317.66;4998002;28;20038;-82
2022/05/31 02:19:28;;;;;;;17.15;8.40;;;;;;;16.86;100.00;100317.22;5015928;28;20048;-82
2022/05/31 02:22:02;;;;;;;13.18;8.25;;;;;;;16.85;100.00;100320.94;4998012;28;20133;-82
2022/05/31 02:24:27;;;;;;;16.73;8.65;;;;;;;16.76;100.00;100319.50;5015534;28;20044;-84
2022/05/31 02:26:54;;;;;;;15.98;8.43;;;;;;;16.76;100.00;100330.22;4998264;28;20026;-84
2022/05/31 02:29:23;;;;;;;19.00;9.27;;;;;;;16.77;100.00;100314.97;4997977;28;20041;-83
2022/05/31 02:31:49;;;;;;;16.13;9.48;;;;;;;16.81;100.00;100319.69;5015715;28;20129;-83
2022/05/31 02:34:19;;;;;;;17.70;8.27;;;;;;;16.82;100.00;100321.34;4998258;28;20073;-83
2022/05/31 02:36:45;;;;;;;11.13;8.55;;;;;;;16.81;100.00;100329.56;5014573;28;20513;-82
2022/05/31 02:39:10;;;;;;;21.00;8.57;;;;;;;16.79;100.00;100315.56;5015326;28;20117;-81
2022/05/31 02:41:39;;;;;;;16.52;8.70;;;;;;;16.95;100.00;100313.28;4997790;28;20034;-82
2022/05/31 02:44:06;;;;;;;20.45;10.27;;;;;;;16.98;100.00;100320.91;5015520;28;20077;-82
2022/05/31 02:46:33;;;;;;;14.15;9.27;;;;;;;17.01;100.00;100315.13;4997780;28;20568;-82
2022/05/31 02:49:00;;;;;;;13.95;9.35;;;;;;;16.94;100.00;100319.66;4997879;28;20042;-82
2022/05/31 02:51:27;;;;;;;18.67;8.98;;;;;;;16.79;100.00;100329.78;4997559;28;20037;-83
2022/05/31 02:53:53;;;;;;;14.90;8.88;;;;;;;16.84;100.00;100323.78;4981863;28;20053;-85
2022/05/31 02:56:26;;;;;;;15.35;9.30;;;;;;;16.76;100.00;100332.88;4997485;28;20397;-82
2022/05/31 02:59:18;;;;;;;15.82;8.93;;;;;;;16.66;100.00;100323.63;4998953;28;20492;-84
2022/05/31 03:02:02;;;;;;;21.13;9.88;;;;;;;16.68;100.00;100327.72;5014574;28;20603;-83
2022/05/31 03:04:47;;;;;;;16.42;9.90;;;;;;;16.64;100.00;100321.13;5015817;28;20048;-83
2022/05/31 03:07:48;;;;;;;15.25;8.60;;;;;;;16.66;100.00;100327.13;5002543;28;20048;-82
2022/05/31 03:10:17;;;;;;;13.38;9.25;;;;;;;16.60;100.00;100327.13;4997420;28;20037;-83
2022/05/31 03:12:44;;;;;;;17.83;10.57;;;;;;;16.60;100.00;100322.59;4997011;28;20045;-82
2022/05/31 03:15:14;;;;;;;18.10;10.60;;;;;;;16.62;100.00;100320.53;5014600;28;20794;-82
2022/05/31 03:17:46;;;;;;;45.38;20.10;;;;;;;16.75;100.00;100325.88;5014790;28;20038;-83
2022/05/31 03:20:21;;;;;;;29.10;10.60;;;;;;;16.64;100.00;100323.81;5014681;28;20038;-83
2022/05/31 03:22:51;;;;;;;32.00;18.15;;;;;;;16.70;100.00;100331.03;5015204;28;20034;-82
2022/05/31 03:25:22;;;;;;;85.57;40.45;;;;;;;16.76;100.00;100329.38;5014411;28;20041;-83
2022/05/31 03:27:51;;;;;;;77.95;42.47;;;;;;;16.89;100.00;100340.91;5014423;28;20045;-82
2022/05/31 03:30:17;;;;;;;30.15;13.35;;;;;;;16.91;100.00;100340.69;5014308;28;20046;-81
2022/05/31 03:32:44;;;;;;;107.55;55.63;;;;;;;16.91;100.00;100341.50;4996494;28;20033;-81
2022/05/31 03:35:11;;;;;;;50.65;25.42;;;;;;;16.81;100.00;100343.78;5014137;28;20088;-83
2022/05/31 03:37:38;;;;;;;21.70;11.45;;;;;;;16.74;100.00;100334.91;4996685;28;20038;-82
2022/05/31 03:43:04;;;;;;;22.63;14.55;;;;;;;16.89;100.00;100334.72;4996447;28;20515;-83
2022/05/31 03:45:39;;;;;;;28.40;15.32;;;;;;;16.85;100.00;100336.97;4996584;28;20068;-81
2022/05/31 03:48:32;;;;;;;36.27;16.77;;;;;;;16.93;100.00;100336.78;4996718;28;20030;-83
2022/05/31 03:51:02;;;;;;;39.60;19.80;;;;;;;16.93;100.00;100339.47;4996830;28;20281;-83
2022/05/31 03:53:28;;;;;;;25.98;12.02;;;;;;;16.90;100.00;100339.84;4996216;28;20046;-82
2022/05/31 03:55:54;;;;;;;34.72;18.05;;;;;;;16.96;100.00;100341.72;4980140;28;20099;-84
2022/05/31 03:58:20;;;;;;;20.85;10.80;;;;;;;16.87;100.00;100342.16;4996597;28;20034;-84
2022/05/31 04:00:55;;;;;;;23.83;13.43;;;;;;;16.85;100.00;100347.69;4995850;28;20559;-83
2022/05/31 04:03:24;;;;;;;22.25;13.90;;;;;;;16.93;100.00;100347.50;5013593;28;20034;-83
2022/05/31 04:05:52;;;;;;;29.45;16.48;;;;;;;16.82;100.00;100342.75;4995829;28;20056;-84
2022/05/31 04:08:19;;;;;;;20.25;10.90;;;;;;;16.74;100.00;100342.13;4996110;28;20037;-83
2022/05/31 04:10:46;;;;;;;21.77;11.32;;;;;;;16.62;100.00;100346.44;4996043;28;20389;-84
2022/05/31 04:13:12;;;;;;;19.95;11.82;;;;;;;16.48;100.00;100340.25;4997630;28;20107;-84
2022/05/31 04:16:10;;;;;;;17.75;12.18;;;;;;;16.53;100.00;100341.28;5013552;28;20128;-85
2022/05/31 04:18:40;;;;;;;21.00;11.05;;;;;;;16.57;100.00;100333.72;4980154;28;20390;-84
2022/05/31 04:21:08;;;;;;;19.95;11.13;;;;;;;16.49;100.00;100337.38;5013484;28;20034;-87
2022/05/31 04:26:44;;;;;;;20.05;11.23;;;;;;;16.63;100.00;100332.88;5013718;28;20046;-85
2022/05/31 04:29:28;;;;;;;19.98;11.40;;;;;;;16.66;100.00;100326.28;5013798;28;20049;-86
2022/05/31 04:32:17;;;;;;;20.17;11.43;;;;;;;16.70;100.00;100331.03;5005893;28;20033;-83
2022/05/31 04:34:53;;;;;;;19.33;11.90;;;;;;;16.61;100.00;100334.09;4976076;28;20035;-82
2022/05/31 04:37:20;;;;;;;17.88;11.45;;;;;;;16.55;100.00;100335.75;4993533;28;20093;-86
2022/05/31 04:39:55;;;;;;;19.17;11.73;;;;;;;16.53;100.00;100343.97;4993428;28;20117;-84
2022/05/31 04:42:33;;;;;;;17.50;11.18;;;;;;;16.53;100.00;100343.13;4973024;28;20043;-82
2022/05/31 04:45:02;;;;;;;20.38;11.65;;;;;;;16.59;100.00;100347.69;4974862;28;20035;-85
2022/05/31 04:47:28;;;;;;;26.90;12.48;;;;;;;16.62;100.00;100346.44;4972693;28;20122;-83
2022/05/31 04:49:57;;;;;;;18.63;11.68;;;;;;;16.70;100.00;100339.06;4956056;28;20039;-86
2022/05/31 04:52:23;;;;;;;19.55;11.50;;;;;;;16.68;100.00;100357.16;4956277;28;20046;-85
2022/05/31 04:54:52;;;;;;;28.10;11.82;;;;;;;16.71;100.00;100356.75;4957256;28;20121;-85
2022/05/31 04:57:27;;;;;;;26.73;12.93;;;;;;;16.57;100.00;100359.63;4947342;28;20043;-86
2022/05/31 05:03:16;;;;;;;21.13;14.13;;;;;;;16.71;100.00;100356.75;4969398;28;20039;-84
2022/05/31 05:05:42;;;;;;;23.00;13.00;;;;;;;16.83;100.00;100359.66;4997363;28;20042;-85
2022/05/31 05:08:14;;;;;;;21.00;11.80;;;;;;;16.94;100.00;100365.19;4987331;28;20457;-90
2022/05/31 05:10:45;;;;;;;20.70;12.05;;;;;;;16.91;100.00;100370.13;4991671;28;20139;-88
2022/05/31 05:13:34;;;;;;;19.88;12.70;;;;;;;16.81;100.00;100378.56;5012884;28;20026;-90
2022/05/31 05:16:02;;;;;;;19.42;12.20;;;;;;;16.90;100.00;100374.66;5004528;28;20127;-90
2022/05/31 05:18:34;;;;;;;19.57;12.40;;;;;;;17.11;100.00;100384.31;4980961;28;20033;-90
2022/05/31 05:21:05;;;;;;;19.40;11.40;;;;;;;17.26;100.00;100382.25;4982164;28;20035;-90
2022/05/31 05:23:32;;;;;;;23.90;13.43;;;;;;;17.14;100.00;100389.25;4946965;28;20488;-89
2022/05/31 05:26:00;;;;;;;25.20;11.68;;;;;;;17.16;100.00;100386.38;4982747;28;20547;-92
2022/05/31 05:31:40;;;;;;;19.80;12.05;;;;;;;16.94;100.00;100386.59;4989871;28;20132;-89
2022/05/31 05:34:26;;;;;;;18.70;12.00;;;;;;;16.84;100.00;100393.38;4976771;28;20049;-87
2022/05/31 05:37:00;;;;;;;22.27;12.50;;;;;;;16.89;100.00;100386.41;4981991;28;20062;-89
2022/05/31 05:39:29;;;;;;;18.23;11.80;;;;;;;17.03;100.00;100388.03;4982794;28;20353;-92
2022/05/31 05:41:57;;;;;;;23.83;13.07;;;;;;;17.03;100.00;100398.75;5000438;28;20081;-89
2022/05/31 05:44:32;;;;;;;22.98;13.35;;;;;;;17.13;100.00;100397.53;4986933;28;20042;-88
2022/05/31 05:47:04;;;;;;;25.05;13.48;;;;;;;17.01;100.00;100394.63;4981922;28;20478;-88
2022/05/31 05:49:29;;;;;;;26.25;13.80;;;;;;;17.07;100.00;100393.78;4997758;28;20038;-89
2022/05/31 05:52:02;;;;;;;24.67;14.50;;;;;;;17.22;100.00;100390.91;4980014;28;20038;-89
2022/05/31 05:55:01;;;;;;;24.00;15.52;;;;;;;17.09;100.00;100396.28;4973286;28;20046;-90
2022/05/31 05:57:44;;;;;;;27.20;15.93;;;;;;;17.03;100.00;100404.09;4997498;28;20046;-89
2022/05/31 06:00:31;;;;;;;28.85;14.98;;;;;;;17.04;100.00;100399.56;4996828;28;20096;-89
2022/05/31 06:03:07;;;;;;;27.15;16.23;;;;;;;17.01;100.00;100408.84;4998275;28;20512;-90
2022/05/31 06:05:47;;;;;;;30.15;17.25;;;;;;;17.13;100.00;100405.56;4983157;28;20030;-91
2022/05/31 06:08:32;;;;;;;31.05;17.60;;;;;;;17.19;100.00;100399.38;5001635;28;20124;-91
2022/05/31 06:11:18;;;;;;;23.40;16.92;;;;;;;17.27;100.00;100399.97;4996627;28;20051;-90
2022/05/31 06:13:53;;;;;;;;;;;;;;;17.33;100.00;100409.03;4984414;28;20088;-90
2022/05/31 06:16:21;;;;;;;23.02;17.45;;;;;;;17.36;100.00;100397.91;5002233;28;19917;-89
2022/05/31 06:18:55;;;;;;;29.80;17.80;;;;;;;17.38;100.00;100406.53;4982531;28;20033;-91
2022/05/31 06:21:24;;;;;;;27.10;18.65;;;;;;;17.36;100.00;100411.28;5012754;28;20038;-91
2022/05/31 06:23:55;;;;;;;28.85;17.50;;;;;;;17.35;100.00;100417.69;4979940;28;20459;-90
2022/05/31 06:26:20;;;;;;;33.13;19.33;;;;;;;17.30;100.00;100425.53;4979404;28;20398;-90
2022/05/31 06:29:03;;;;;;;27.80;18.23;;;;;;;17.27;100.00;100416.03;5012863;28;20049;-89
2022/05/31 06:31:31;;;;;;;24.48;17.60;;;;;;;17.33;100.00;100419.75;4995558;28;20046;-89
2022/05/31 06:33:58;;;;;;;31.98;18.92;;;;;;;17.39;100.00;100418.91;4979109;28;20051;-89
2022/05/31 06:36:40;;;;;;;;;;;;;;;17.55;100.00;100413.97;4979391;28;20035;-88
2022/05/31 06:39:07;;;;;;;27.88;16.92;;;;;;;17.67;100.00;100407.94;4979887;28;19925;-90
2022/05/31 06:41:33;;;;;;;23.83;17.55;;;;;;;17.71;100.00;100412.69;4980178;28;20030;-90
2022/05/31 06:45:02;;;;;;;24.98;17.08;;;;;;;17.89;100.00;100417.38;4961387;29;20043;-90
2022/05/31 06:47:48;;;;;;;31.55;19.05;;;;;;;17.93;100.00;100422.06;4958222;29;20078;-89
2022/05/31 06:50:45;;;;;;;29.00;18.42;;;;;;;17.93;100.00;100429.31;4958427;29;20146;-88
2022/05/31 06:59:22;;;;;;;36.38;19.70;;;;;;;17.94;100.00;100434.47;4959567;28;20525;-85
2022/05/31 07:01:53;;;;;;;34.38;21.17;;;;;;;17.95;100.00;100435.28;4943760;28;20058;-86
2022/05/31 07:04:24;;;;;;;30.73;20.27;;;;;;;17.97;100.00;100436.72;4927233;29;20431;-85
2022/05/31 07:06:50;;;;;;;31.80;21.00;;;;;;;17.99;100.00;100434.66;4938823;29;20031;-85
2022/05/31 07:09:38;;;;;;;37.80;22.58;;;;;;;18.04;100.00;100445.56;4930475;29;20126;-86
2022/05/31 07:12:16;;;;;;;29.60;20.08;;;;;;;18.26;100.00;100434.53;4939871;29;20034;-85
2022/05/31 07:15:14;;;;;;;28.65;20.63;;;;;;;18.38;100.00;100435.50;4976310;28;20048;-85
2022/05/31 07:18:05;;;;;;;39.22;21.05;;;;;;;18.66;100.00;100441.34;4995115;28;20536;-85
2022/05/31 07:20:32;;;;;;;38.10;21.08;;;;;;;18.90;100.00;100440.56;4961671;28;20038;-85
2022/05/31 07:22:58;;;;;;;31.60;19.92;;;;;;;19.27;100.00;100451.41;4977642;28;20481;-87
2022/05/31 07:25:29;;;;;;;32.88;19.83;;;;;;;19.41;100.00;100450.28;4978992;28;20034;-85
2022/05/31 07:28:01;;;;;;;29.45;20.05;;;;;;;19.44;100.00;100452.53;4964606;28;20068;-85
2022/05/31 07:30:27;;;;;;;32.42;20.98;;;;;;;19.63;100.00;100451.50;4979707;28;20034;-84
2022/05/31 07:32:53;;;;;;;27.02;19.55;;;;;;;19.71;100.00;100453.91;4978818;28;20110;-85
2022/05/31 07:35:20;;;;;;;28.60;20.35;;;;;;;19.57;100.00;100460.47;4979776;28;20041;-85
2022/05/31 07:37:46;;;;;;;31.75;20.27;;;;;;;19.34;100.00;100455.69;4997315;28;20042;-86
2022/05/31 07:40:15;;;;;;;31.70;20.63;;;;;;;19.22;100.00;100453.94;4980062;28;20034;-84
2022/05/31 07:42:41;;;;;;;30.73;20.30;;;;;;;19.27;100.00;100449.56;4976765;28;20044;-85
2022/05/31 07:45:07;;;;;;;34.28;21.27;;;;;;;19.36;100.00;100439.31;4976980;28;20026;-86
2022/05/31 07:47:33;;;;;;;31.25;20.88;;;;;;;20.06;100.00;100441.50;4960618;28;20034;-87
2022/05/31 07:49:59;;;;;;;26.48;20.20;;;;;;;20.34;100.00;100437.47;4976850;28;20126;-85
2022/05/31 07:52:32;;;;;;;32.00;21.50;;;;;;;20.34;100.00;100440.16;4991003;28;20129;-85
2022/05/31 07:55:16;;;;;;;29.83;21.63;;;;;;;20.59;100.00;100452.41;4975190;28;20053;-84
2022/05/31 07:58:32;;;;;;;30.58;20.02;;;;;;;21.39;100.00;100449.31;4965698;28;20513;-87
2022/05/31 08:01:22;;;;;;;29.30;19.20;;;;;;;21.75;100.00;100451.75;4994127;28;20092;-86
2022/05/31 08:03:49;;;;;;;23.90;18.45;;;;;;;22.19;100.00;100446.75;4976290;28;20038;-83
2022/05/31 08:06:21;;;;;;;31.85;20.67;;;;;;;21.53;100.00;100442.63;4995472;28;20046;-85
2022/05/31 08:08:47;;;;;;;27.27;19.50;;;;;;;22.08;100.00;100441.16;4994623;28;20030;-88
2022/05/31 08:11:33;;;;;;;29.77;19.65;;;;;;;22.21;100.00;100445.44;4994310;28;20410;-88
2022/05/31 08:13:59;;;;;;;29.38;21.10;;;;;;;22.41;94.68;100439.63;4993516;28;20042;-90
2022/05/31 08:16:28;;;;;;;36.83;21.50;;;;;;;22.13;97.86;100443.97;4994508;28;20037;-85
2022/05/31 08:18:55;;;;;;;25.23;18.67;;;;;;;22.18;100.00;100440.53;4994921;28;20041;-86
2022/05/31 08:21:27;;;;;;;33.08;20.52;;;;;;;;;;4996034;28;20038;-88
2022/05/31 08:23:54;;;;;;;30.08;21.20;;;;;;;22.97;92.61;100434.19;4994145;28;20046;-87
2022/05/31 08:26:20;;;;;;;31.45;21.65;;;;;;;;;;4976869;28;20118;-87
2022/05/31 08:28:45;;;;;;;30.52;20.20;;;;;;;22.78;93.25;100426.56;4977041;28;20069;-88
2022/05/31 08:31:19;;;;;;;27.88;19.38;;;;;;;23.51;90.98;100429.09;4977317;28;20034;-85
2022/05/31 08:33:45;;;;;;;31.95;20.13;;;;;;;24.06;85.19;100429.81;4994829;28;20045;-88
2022/05/31 08:36:10;;;;;;;37.38;20.25;;;;;;;24.95;80.53;100432.97;4977050;28;20042;-86
2022/05/31 08:38:36;;;;;;;26.02;19.42;;;;;;;26.15;75.75;100428.56;4993778;28;20121;-86
2022/05/31 08:41:20;;;;;;;32.92;20.15;;;;;;;25.44;78.15;100432.78;4993372;28;20045;-85
2022/05/31 08:43:59;;;;;;;34.92;20.77;;;;;;;24.85;80.37;100430.19;4993257;28;20582;-84
2022/05/31 08:46:34;;;;;;;27.15;20.63;;;;;;;24.74;81.59;100420.28;4994097;28;20073;-84
2022/05/31 08:49:05;;;;;;;36.38;22.05;;;;;;;24.31;81.61;100428.50;4975219;28;20038;-88
2022/05/31 08:51:53;;;;;;;29.63;15.07;;;;;;;23.94;85.87;100422.91;4994543;28;20035;-86
2022/05/31 08:57:36;;;;;;;35.70;23.17;;;;;;;23.42;85.85;100427.88;4978939;28;20046;-86
2022/05/31 09:00:07;;;;;;;32.95;23.00;;;;;;;23.60;85.89;100423.00;4985378;28;20030;-86
2022/05/31 09:02:55;;;;;;;29.50;21.75;;;;;;;24.41;84.49;100428.63;5004092;28;20042;-89
2022/05/31 09:05:28;;;;;;;33.28;22.38;;;;;;;24.37;83.57;100422.91;4989746;28;20072;-83
2022/05/31 09:08:17;;;;;;;33.55;21.98;;;;;;;24.17;81.85;100433.50;5005536;28;20058;-87
2022/05/31 09:10:53;;;;;;;35.20;23.23;;;;;;;23.52;84.91;100430.75;4999685;28;20042;-87
2022/05/31 09:13:34;;;;;;;31.42;22.42;;;;;;;24.11;83.84;100427.19;4980375;28;20050;-86
2022/05/31 09:16:25;;;;;;;31.27;20.70;;;;;;;24.96;79.20;100423.75;4994447;28;20366;-86
2022/05/31 09:18:56;;;;;;;28.77;20.30;;;;;;;24.56;81.40;100426.09;4996978;28;20034;-89
2022/05/31 09:21:38;;;;;;;32.10;18.52;;;;;;;25.05;81.59;100435.78;4978899;28;20088;-86
2022/05/31 09:24:08;;;;;;;25.25;19.17;;;;;;;24.95;79.46;100435.69;4962932;28;20096;-86
2022/05/31 09:27:03;;;;;;;26.38;19.92;;;;;;;24.61;78.80;100442.38;4979259;28;20038;-87
2022/05/31 09:29:44;;;;;;;27.42;19.42;;;;;;;23.16;84.92;100449.13;4996566;28;20478;-86
2022/05/31 09:32:36;;;;;;;27.75;19.42;;;;;;;22.83;87.29;100437.47;5010309;28;20048;-84
2022/05/31 09:35:13;;;;;;;31.23;21.50;;;;;;;22.60;88.66;100435.69;4996429;28;20049;-84
2022/05/31 09:37:51;;;;;;;32.08;20.67;;;;;;;23.12;88.41;100431.75;4977797;28;20040;-85
2022/05/31 09:40:39;;;;;;;28.02;19.98;;;;;;;23.58;85.03;100438.69;4996154;28;20037;-85
2022/05/31 09:43:16;;;;;;;27.98;20.13;;;;;;;23.93;83.14;100432.91;4997129;28;20062;-85
2022/05/31 09:45:53;;;;;;;27.27;20.63;;;;;;;24.02;82.63;100426.00;4994317;28;20034;-86
2022/05/31 09:48:18;;;;;;;34.20;20.42;;;;;;;24.38;81.52;100416.41;4996100;28;20044;-84
2022/05/31 09:50:44;;;;;;;30.55;19.15;;;;;;;24.77;82.23;100422.47;4995987;28;20117;-87
2022/05/31 09:59:12;;;;;;;35.67;20.50;;;;;;;25.59;76.59;100424.75;4995304;28;20050;-87
2022/05/31 10:02:31;;;;;;;28.50;19.63;;;;;;;24.61;79.17;100423.41;4944695;28;20061;-86
2022/05/31 10:05:21;;;;;;;30.33;19.92;;;;;;;23.98;83.14;100432.97;4936243;28;20062;-85
2022/05/31 10:07:47;;;;;;;31.17;21.73;;;;;;;24.12;85.25;100431.56;4991550;28;20030;-86
2022/05/31 10:10:35;;;;;;;29.40;22.73;;;;;;;24.58;83.16;100424.75;4993150;28;20037;-86
2022/05/31 10:13:04;;;;;;;35.50;21.63;;;;;;;24.59;84.59;100428.28;4992700;28;20042;-85
2022/05/31 10:15:34;;;;;;;28.50;21.45;;;;;;;24.77;82.89;100429.78;4992472;28;20066;-88
2022/05/31 10:18:04;;;;;;;31.10;20.92;;;;;;;24.94;80.18;100422.38;4986513;28;20113;-88
2022/05/31 10:20:32;;;;;;;31.90;22.23;;;;;;;24.18;83.74;100429.72;5003717;28;20035;-85
2022/05/31 10:23:04;;;;;;;36.28;23.75;;;;;;;24.05;85.97;100425.50;4969844;28;20536;-86
2022/05/31 10:25:55;;;;;;;28.35;22.10;;;;;;;24.42;85.20;100411.31;4994056;28;20049;-86
2022/05/31 10:28:57;;;;;;;41.83;23.92;;;;;;;24.17;84.80;100422.66;4975917;28;20425;-87
2022/05/31 10:31:47;;;;;;;34.83;22.13;;;;;;;23.94;84.94;100429.13;4977892;28;20065;-86
2022/05/31 10:34:33;;;;;;;31.55;22.05;;;;;;;23.44;88.79;100423.03;4998475;28;20101;-86
2022/05/31 10:37:01;;;;;;;33.40;23.05;;;;;;;23.89;86.11;100418.25;4999089;28;20030;-85
2022/05/31 10:39:31;;;;;;;29.83;20.08;;;;;;;24.38;82.00;100419.13;5012762;28;20030;-86
2022/05/31 10:41:59;;;;;;;25.55;19.60;;;;;;;24.29;82.41;100414.41;5016236;28;20058;-85
2022/05/31 10:44:30;;;;;;;30.40;20.20;;;;;;;24.29;82.54;100409.00;5002612;28;20035;-87
2022/05/31 10:47:05;;;;;;;28.65;19.85;;;;;;;24.21;83.43;100420.28;4995086;28;20046;-88
2022/05/31 10:49:32;;;;;;;28.80;19.58;;;;;;;23.92;85.21;100416.94;4995153;28;20034;-86
2022/05/31 10:52:04;;;;;;;32.70;19.02;;;;;;;23.61;86.08;100415.72;4994837;28;20046;-88
2022/05/31 10:55:01;;;;;;;28.05;18.70;;;;;;;23.32;87.53;100403.38;4992560;28;20042;-87
2022/05/31 10:58:04;;;;;;;27.30;20.10;;;;;;;23.37;86.16;100403.41;4977900;28;20034;-88
2022/05/31 11:00:56;;;;;;;28.00;18.95;;;;;;;23.70;85.89;100395.25;4994834;28;20508;-87
2022/05/31 11:03:27;;;;;;;29.77;20.05;;;;;;;24.12;85.18;100382.81;4994163;28;20053;-88
2022/05/31 11:06:17;;;;;;;36.30;19.80;;;;;;;24.25;84.30;100392.44;4994503;28;20045;-90
2022/05/31 11:12:38;;;;;;;29.52;18.08;;;;;;;24.94;80.67;100406.94;4897013;29;20048;-87
2022/05/31 11:15:20;;;;;;;29.50;19.08;;;;;;;24.55;81.97;100405.47;4898841;29;20115;-88
2022/05/31 11:18:12;;;;;;;27.55;18.30;;;;;;;23.93;83.83;100405.03;4898072;29;20116;-88
2022/05/31 11:21:03;;;;;;;29.35;18.85;;;;;;;23.52;87.02;100403.69;4899287;29;20045;-86
2022/05/31 11:23:37;;;;;;;30.20;19.38;;;;;;;23.65;86.67;100397.91;4946990;28;20060;-87
2022/05/31 11:26:38;;;;;;;33.08;20.13;;;;;;;23.70;87.36;100389.84;5002108;28;20038;-87
2022/05/31 11:29:09;;;;;;;30.15;21.27;;;;;;;23.48;89.08;100399.84;5001421;28;20385;-86
2022/05/31 11:31:48;;;;;;;32.10;20.73;;;;;;;23.53;90.26;100397.22;5020079;28;20037;-88
2022/05/31 11:34:23;;;;;;;30.73;21.00;;;;;;;23.45;89.20;100397.63;4999022;28;20069;-88
2022/05/31 11:37:09;;;;;;;32.90;19.50;;;;;;;23.20;92.09;100391.84;4971019;28;20038;-88
2022/05/31 11:40:04;;;;;;;35.30;21.38;;;;;;;23.39;89.90;100398.59;4998260;28;20137;-87
2022/05/31 11:43:08;;;;;;;34.08;20.50;;;;;;;23.41;89.44;100405.44;4996278;28;20058;-85
2022/05/31 11:45:50;;;;;;;28.25;19.98;;;;;;;23.34;90.01;100401.22;4983207;28;20042;-86
2022/05/31 11:48:35;;;;;;;33.60;19.35;;;;;;;23.24;91.81;100395.66;4978418;28;20034;-86
2022/05/31 11:51:18;;;;;;;28.25;18.52;;;;;;;23.35;91.43;100392.03;4999041;28;20555;-84
2022/05/31 11:54:19;;;;;;;36.78;21.10;;;;;;;23.21;91.28;100382.63;4991073;28;20405;-88
2022/05/31 11:56:57;;;;;;;31.60;21.25;;;;;;;23.14;91.06;100374.69;5008388;28;20263;-88
2022/05/31 11:59:40;;;;;;;33.55;20.05;;;;;;;23.11;92.83;100377.91;5016610;28;20041;-87
2022/05/31 12:02:30;;;;;;;28.83;18.98;;;;;;;23.20;91.14;100375.59;5002086;28;20073;-85
2022/05/31 12:05:04;;;;;;;30.13;17.40;;;;;;;23.14;92.84;100364.72;5018871;28;20077;-90
2022/05/31 12:07:38;;;;;;;35.50;20.70;;;;;;;23.22;92.74;100359.94;5027843;28;20038;-89
2022/05/31 12:10:27;;;;;;;34.45;18.40;;;;;;;23.37;93.20;100369.09;4981654;28;20034;-88
2022/05/31 12:13:04;;;;;;;26.87;17.93;;;;;;;23.31;91.38;100371.97;5009106;28;20031;-86
2022/05/31 12:15:36;;;;;;;27.05;16.63;;;;;;;23.45;90.41;100367.88;5012389;28;20038;-87
2022/05/31 12:18:41;;;;;;;24.77;16.17;;;;;;;23.29;90.88;100371.41;5005573;28;20139;-90